ΕΜΥ, Εθνική Μετεωρολογική Υπηρεσία - Δελτία Καιρού, Προγνώσεις

ΑΕΡΟΝΑΥΤΙΛΙΑ

GREEK AIRPORTS CODES

LGML 221400Z 01020KT 9999 FEW040 22/12 Q1018=

EUROPEAN AIRPORTS CODES

LFPO 221430Z 21007KT 9999 SCT009 BKN018 OVC076 16/15 Q1009TEMPO BKN009=